RYR89TL EIKY-EGGW
Flight info
| Callsign | RYR89TL |
|---|---|
| Flight time | 0h 58m |
| Altitude | 29000 |
| Route | CRK3D CRK DCT AVZAC DCT CAWZE DCT SIRIC DCT SILVA |
| Aircraft | B738/M-ICAO/LB1 |
Departure
| Time | 2026-04-23 11:51 |
|---|---|
| Airport | Kerry Airport (EIKY) |
Arrival
| Time | 2026-04-23 12:49 |
|---|---|
| Airport | London Luton Airport (EGGW) |
| Time | Latitude | Longitude | Altitude | Speed | Heading |
|---|---|---|---|---|---|
| 2026-04-23 11:34 | 52.18103 | -9.53762 | 85 ft | 0 kts | 138° |
| 2026-04-23 11:47 | 52.18101 | -9.53760 | 85 ft | 0 kts | 138° |
| 2026-04-23 11:47 | 52.18080 | -9.53724 | 85 ft | 5 kts | 123° |
| 2026-04-23 11:48 | 52.18057 | -9.53680 | 87 ft | 4 kts | 142° |
| 2026-04-23 11:48 | 52.18031 | -9.53652 | 87 ft | 4 kts | 148° |
| 2026-04-23 11:48 | 52.18000 | -9.53627 | 88 ft | 5 kts | 156° |
| 2026-04-23 11:48 | 52.17961 | -9.53604 | 88 ft | 6 kts | 160° |
| 2026-04-23 11:49 | 52.17907 | -9.53574 | 88 ft | 11 kts | 163° |
| 2026-04-23 11:49 | 52.17835 | -9.53573 | 88 ft | 10 kts | 238° |
| 2026-04-23 11:49 | 52.17799 | -9.53685 | 88 ft | 12 kts | 225° |
| 2026-04-23 11:49 | 52.17808 | -9.53736 | 88 ft | 2 kts | 37° |
| 2026-04-23 11:50 | 52.17815 | -9.53695 | 88 ft | 0 kts | 68° |
| 2026-04-23 11:50 | 52.17817 | -9.53684 | 88 ft | 4 kts | 68° |
| 2026-04-23 11:50 | 52.17890 | -9.53331 | 91 ft | 73 kts | 71° |
| 2026-04-23 11:50 | 52.18134 | -9.52158 | 109 ft | 141 kts | 71° |
| 2026-04-23 11:51 | 52.18465 | -9.50543 | 687 ft | 151 kts | 75° |
| 2026-04-23 11:51 | 52.18767 | -9.48923 | 1450 ft | 156 kts | 79° |
| 2026-04-23 11:51 | 52.19101 | -9.47273 | 2308 ft | 161 kts | 79° |
| 2026-04-23 11:51 | 52.19430 | -9.45458 | 3002 ft | 179 kts | 81° |
| 2026-04-23 11:52 | 52.19823 | -9.43514 | 3940 ft | 186 kts | 79° |
| 2026-04-23 11:52 | 52.20230 | -9.41540 | 4860 ft | 190 kts | 79° |
| 2026-04-23 11:52 | 52.20643 | -9.39505 | 5729 ft | 194 kts | 79° |
| 2026-04-23 11:52 | 52.21063 | -9.37431 | 6573 ft | 197 kts | 81° |
| 2026-04-23 11:53 | 52.21212 | -9.35249 | 7257 ft | 199 kts | 102° |
| 2026-04-23 11:53 | 52.20857 | -9.33076 | 8014 ft | 201 kts | 116° |
| 2026-04-23 11:53 | 52.20201 | -9.31043 | 8680 ft | 210 kts | 129° |
| 2026-04-23 11:53 | 52.19263 | -9.29102 | 9218 ft | 226 kts | 131° |
| 2026-04-23 11:54 | 52.18307 | -9.27089 | 9979 ft | 232 kts | 130° |
| 2026-04-23 11:54 | 52.17348 | -9.24955 | 10778 ft | 236 kts | 128° |
| 2026-04-23 11:54 | 52.16406 | -9.22771 | 11540 ft | 240 kts | 127° |
| 2026-04-23 11:54 | 52.15442 | -9.20557 | 12271 ft | 244 kts | 127° |
| 2026-04-23 11:55 | 52.14467 | -9.18326 | 13090 ft | 245 kts | 127° |
| 2026-04-23 11:55 | 52.13480 | -9.16066 | 13773 ft | 249 kts | 127° |
| 2026-04-23 11:55 | 52.12482 | -9.13768 | 14497 ft | 250 kts | 127° |
| 2026-04-23 11:55 | 52.11484 | -9.11473 | 15123 ft | 254 kts | 127° |
| 2026-04-23 11:56 | 52.10463 | -9.09147 | 15803 ft | 255 kts | 127° |
| 2026-04-23 11:56 | 52.09427 | -9.06791 | 16382 ft | 261 kts | 127° |
| 2026-04-23 11:56 | 52.08386 | -9.04408 | 17051 ft | 262 kts | 127° |
| 2026-04-23 11:56 | 52.07325 | -9.01978 | 17681 ft | 266 kts | 127° |
| 2026-04-23 11:57 | 52.06255 | -8.99540 | 18315 ft | 267 kts | 128° |
| 2026-04-23 11:57 | 52.05162 | -8.97060 | 18854 ft | 271 kts | 127° |
| 2026-04-23 11:57 | 52.04075 | -8.94588 | 19416 ft | 273 kts | 127° |
| 2026-04-23 11:57 | 52.02979 | -8.92087 | 19946 ft | 276 kts | 127° |
| 2026-04-23 11:58 | 52.01860 | -8.89534 | 20469 ft | 278 kts | 127° |
| 2026-04-23 11:58 | 52.00745 | -8.86989 | 21004 ft | 279 kts | 127° |
| 2026-04-23 11:58 | 51.99614 | -8.84417 | 21431 ft | 284 kts | 128° |
| 2026-04-23 11:58 | 51.98465 | -8.81830 | 21931 ft | 285 kts | 128° |
| 2026-04-23 11:59 | 51.97313 | -8.79238 | 22418 ft | 287 kts | 128° |
| 2026-04-23 11:59 | 51.96138 | -8.76582 | 22830 ft | 290 kts | 128° |
| 2026-04-23 11:59 | 51.94964 | -8.73930 | 23275 ft | 293 kts | 128° |
| 2026-04-23 11:59 | 51.93781 | -8.71269 | 23678 ft | 297 kts | 128° |
| 2026-04-23 12:00 | 51.92562 | -8.68540 | 24128 ft | 298 kts | 128° |
| 2026-04-23 12:00 | 51.91363 | -8.65854 | 24536 ft | 300 kts | 128° |
| 2026-04-23 12:00 | 51.90140 | -8.63101 | 24864 ft | 305 kts | 128° |
| 2026-04-23 12:00 | 51.88871 | -8.60225 | 24919 ft | 319 kts | 127° |
| 2026-04-23 12:01 | 51.87553 | -8.57247 | 24999 ft | 332 kts | 127° |
| 2026-04-23 12:01 | 51.86190 | -8.54188 | 25190 ft | 340 kts | 127° |
| 2026-04-23 12:01 | 51.84969 | -8.50910 | 25598 ft | 344 kts | 116° |
| 2026-04-23 12:01 | 51.84238 | -8.47220 | 25983 ft | 350 kts | 102° |
| 2026-04-23 12:02 | 51.84066 | -8.43316 | 26471 ft | 352 kts | 93° |
| 2026-04-23 12:02 | 51.84065 | -8.39387 | 26926 ft | 352 kts | 93° |
| 2026-04-23 12:02 | 51.84044 | -8.35427 | 27267 ft | 354 kts | 94° |
| 2026-04-23 12:02 | 51.84000 | -8.31450 | 27733 ft | 352 kts | 95° |
| 2026-04-23 12:03 | 51.83961 | -8.27537 | 28072 ft | 355 kts | 94° |
| 2026-04-23 12:03 | 51.83935 | -8.23564 | 28542 ft | 352 kts | 94° |
| 2026-04-23 12:03 | 51.83913 | -8.19651 | 28951 ft | 352 kts | 94° |
| 2026-04-23 12:03 | 51.83882 | -8.15688 | 29251 ft | 354 kts | 94° |
| 2026-04-23 12:04 | 51.83841 | -8.11684 | 29290 ft | 359 kts | 94° |
| 2026-04-23 12:04 | 51.83779 | -8.03714 | 29299 ft | 352 kts | 93° |
| 2026-04-23 12:05 | 51.83728 | -7.95878 | 29303 ft | 352 kts | 93° |
| 2026-04-23 12:05 | 51.83664 | -7.87954 | 29295 ft | 354 kts | 94° |
| 2026-04-23 12:06 | 51.83572 | -7.80007 | 29304 ft | 355 kts | 93° |
| 2026-04-23 12:06 | 51.83459 | -7.68042 | 29310 ft | 355 kts | 93° |
| 2026-04-23 12:07 | 51.83373 | -7.60081 | 29302 ft | 355 kts | 93° |
| 2026-04-23 12:07 | 51.83283 | -7.52149 | 29290 ft | 356 kts | 93° |
| 2026-04-23 12:08 | 51.83177 | -7.44144 | 29299 ft | 356 kts | 93° |
| 2026-04-23 12:08 | 51.83054 | -7.36150 | 29302 ft | 356 kts | 93° |
| 2026-04-23 12:09 | 51.82935 | -7.28179 | 29306 ft | 356 kts | 93° |
| 2026-04-23 12:09 | 51.82831 | -7.20251 | 29316 ft | 356 kts | 93° |
| 2026-04-23 12:10 | 51.82716 | -7.12238 | 29321 ft | 357 kts | 93° |
| 2026-04-23 12:10 | 51.82585 | -7.04293 | 29329 ft | 356 kts | 93° |
| 2026-04-23 12:11 | 51.82458 | -6.96281 | 29333 ft | 357 kts | 93° |
| 2026-04-23 12:11 | 51.82310 | -6.88265 | 29322 ft | 357 kts | 93° |
| 2026-04-23 12:12 | 51.82161 | -6.80269 | 29327 ft | 356 kts | 93° |
| 2026-04-23 12:12 | 51.82003 | -6.72328 | 29329 ft | 356 kts | 92° |
| 2026-04-23 12:13 | 51.81849 | -6.64309 | 29335 ft | 362 kts | 92° |
| 2026-04-23 12:13 | 51.81694 | -6.56014 | 29342 ft | 380 kts | 92° |
| 2026-04-23 12:14 | 51.81513 | -6.47272 | 29333 ft | 398 kts | 92° |
| 2026-04-23 12:14 | 51.81317 | -6.38221 | 29347 ft | 414 kts | 92° |
| 2026-04-23 12:15 | 51.81095 | -6.28816 | 29335 ft | 429 kts | 93° |
| 2026-04-23 12:15 | 51.80881 | -6.19058 | 29328 ft | 442 kts | 92° |
| 2026-04-23 12:16 | 51.80648 | -6.09000 | 29344 ft | 454 kts | 93° |
| 2026-04-23 12:16 | 51.80407 | -5.98704 | 29362 ft | 465 kts | 92° |
| 2026-04-23 12:17 | 51.80099 | -5.88253 | 29340 ft | 467 kts | 94° |
| 2026-04-23 12:17 | 51.79763 | -5.77858 | 29357 ft | 466 kts | 92° |
| 2026-04-23 12:18 | 51.79496 | -5.67464 | 29354 ft | 464 kts | 92° |
| 2026-04-23 12:18 | 51.79220 | -5.57126 | 29350 ft | 465 kts | 92° |
| 2026-04-23 12:19 | 51.78933 | -5.46690 | 29343 ft | 466 kts | 92° |
| 2026-04-23 12:19 | 51.78629 | -5.36261 | 29341 ft | 466 kts | 92° |
| 2026-04-23 12:20 | 51.78311 | -5.25877 | 29337 ft | 465 kts | 93° |
| 2026-04-23 12:20 | 51.77983 | -5.15450 | 29328 ft | 465 kts | 93° |
| 2026-04-23 12:21 | 51.77527 | -5.05085 | 29323 ft | 464 kts | 98° |
| 2026-04-23 12:21 | 51.76313 | -4.94890 | 29320 ft | 465 kts | 101° |
| 2026-04-23 12:22 | 51.75105 | -4.84688 | 29332 ft | 465 kts | 100° |
| 2026-04-23 12:22 | 51.73892 | -4.74431 | 29333 ft | 466 kts | 100° |
| 2026-04-23 12:23 | 51.72654 | -4.64201 | 29328 ft | 467 kts | 100° |
| 2026-04-23 12:23 | 51.71444 | -4.54058 | 29342 ft | 464 kts | 100° |
| 2026-04-23 12:24 | 51.70208 | -4.43849 | 29349 ft | 465 kts | 100° |
| 2026-04-23 12:24 | 51.68924 | -4.33672 | 29360 ft | 466 kts | 101° |
| 2026-04-23 12:25 | 51.67657 | -4.23508 | 29360 ft | 466 kts | 100° |
| 2026-04-23 12:25 | 51.66412 | -4.13264 | 29364 ft | 466 kts | 100° |
| 2026-04-23 12:26 | 51.65145 | -4.03081 | 29366 ft | 465 kts | 100° |
| 2026-04-23 12:26 | 51.63868 | -3.92973 | 29368 ft | 465 kts | 100° |
| 2026-04-23 12:27 | 51.62567 | -3.82782 | 29379 ft | 466 kts | 100° |
| 2026-04-23 12:27 | 51.61272 | -3.72627 | 29377 ft | 466 kts | 100° |
| 2026-04-23 12:28 | 51.59958 | -3.62403 | 29380 ft | 467 kts | 99° |
| 2026-04-23 12:28 | 51.58626 | -3.52243 | 29385 ft | 468 kts | 100° |
| 2026-04-23 12:29 | 51.57255 | -3.42107 | 29395 ft | 467 kts | 100° |
| 2026-04-23 12:29 | 51.55889 | -3.31923 | 29408 ft | 468 kts | 101° |
| 2026-04-23 12:30 | 51.54532 | -3.21780 | 29401 ft | 467 kts | 101° |
| 2026-04-23 12:30 | 51.53146 | -3.11577 | 29395 ft | 468 kts | 100° |
| 2026-04-23 12:31 | 51.51798 | -3.01369 | 29395 ft | 468 kts | 99° |
| 2026-04-23 12:31 | 51.50454 | -2.91243 | 29410 ft | 467 kts | 99° |
| 2026-04-23 12:32 | 51.49089 | -2.81084 | 29404 ft | 468 kts | 99° |
| 2026-04-23 12:32 | 51.47677 | -2.70947 | 29409 ft | 469 kts | 100° |
| 2026-04-23 12:33 | 51.46957 | -2.65869 | 29206 ft | 466 kts | 100° |
| 2026-04-23 12:33 | 51.46238 | -2.60801 | 28190 ft | 469 kts | 100° |
| 2026-04-23 12:33 | 51.45519 | -2.55708 | 27446 ft | 464 kts | 100° |
| 2026-04-23 12:33 | 51.44817 | -2.50770 | 27407 ft | 453 kts | 100° |
| 2026-04-23 12:34 | 51.44199 | -2.45819 | 27395 ft | 455 kts | 93° |
| 2026-04-23 12:34 | 51.44286 | -2.40800 | 27386 ft | 455 kts | 75° |
| 2026-04-23 12:34 | 51.45342 | -2.36084 | 27376 ft | 454 kts | 59° |
| 2026-04-23 12:34 | 51.46910 | -2.31683 | 27381 ft | 456 kts | 57° |
| 2026-04-23 12:35 | 51.48459 | -2.27257 | 27376 ft | 456 kts | 59° |
| 2026-04-23 12:35 | 51.49889 | -2.22766 | 27395 ft | 455 kts | 61° |
| 2026-04-23 12:35 | 51.51272 | -2.18213 | 27394 ft | 455 kts | 62° |
| 2026-04-23 12:35 | 51.52634 | -2.13676 | 27382 ft | 456 kts | 62° |
| 2026-04-23 12:36 | 51.53997 | -2.09078 | 27449 ft | 456 kts | 62° |
| 2026-04-23 12:36 | 51.55347 | -2.04483 | 27441 ft | 456 kts | 62° |
| 2026-04-23 12:36 | 51.56685 | -1.99889 | 27445 ft | 455 kts | 62° |
| 2026-04-23 12:36 | 51.57882 | -1.95157 | 27451 ft | 453 kts | 68° |
| 2026-04-23 12:37 | 51.58792 | -1.90458 | 27450 ft | 438 kts | 70° |
| 2026-04-23 12:37 | 51.59626 | -1.85905 | 27449 ft | 418 kts | 70° |
| 2026-04-23 12:37 | 51.60453 | -1.81544 | 27457 ft | 400 kts | 69° |
| 2026-04-23 12:37 | 51.61292 | -1.77279 | 27458 ft | 400 kts | 69° |
| 2026-04-23 12:38 | 51.62138 | -1.73001 | 27449 ft | 406 kts | 69° |
| 2026-04-23 12:38 | 51.62987 | -1.68698 | 27454 ft | 409 kts | 68° |
| 2026-04-23 12:38 | 51.63848 | -1.64326 | 27455 ft | 407 kts | 68° |
| 2026-04-23 12:38 | 51.64677 | -1.60062 | 26978 ft | 403 kts | 69° |
| 2026-04-23 12:39 | 51.65511 | -1.55753 | 26372 ft | 399 kts | 69° |
| 2026-04-23 12:39 | 51.66325 | -1.51565 | 25826 ft | 395 kts | 69° |
| 2026-04-23 12:39 | 51.67133 | -1.47395 | 25350 ft | 388 kts | 69° |
| 2026-04-23 12:39 | 51.67914 | -1.43275 | 24696 ft | 386 kts | 69° |
| 2026-04-23 12:40 | 51.68682 | -1.39171 | 24161 ft | 381 kts | 69° |
| 2026-04-23 12:40 | 51.69444 | -1.35124 | 23502 ft | 379 kts | 70° |
| 2026-04-23 12:40 | 51.70214 | -1.31071 | 22937 ft | 374 kts | 70° |
| 2026-04-23 12:40 | 51.70959 | -1.27185 | 22098 ft | 370 kts | 70° |
| 2026-04-23 12:41 | 51.71722 | -1.23234 | 20504 ft | 383 kts | 71° |
| 2026-04-23 12:41 | 51.72519 | -1.19083 | 18480 ft | 400 kts | 72° |
| 2026-04-23 12:41 | 51.73320 | -1.14856 | 16673 ft | 407 kts | 73° |
| 2026-04-23 12:41 | 51.74129 | -1.10547 | 15218 ft | 401 kts | 73° |
| 2026-04-23 12:42 | 51.74900 | -1.06440 | 14686 ft | 376 kts | 73° |
| 2026-04-23 12:42 | 51.75644 | -1.02514 | 14274 ft | 351 kts | 73° |
| 2026-04-23 12:42 | 51.76342 | -0.98821 | 13223 ft | 350 kts | 74° |
| 2026-04-23 12:42 | 51.77043 | -0.95067 | 11466 ft | 366 kts | 74° |
| 2026-04-23 12:43 | 51.77769 | -0.91165 | 9512 ft | 381 kts | 74° |
| 2026-04-23 12:43 | 51.78519 | -0.87163 | 8434 ft | 368 kts | 74° |
| 2026-04-23 12:43 | 51.79236 | -0.83340 | 7871 ft | 345 kts | 74° |
| 2026-04-23 12:43 | 51.79915 | -0.79696 | 6660 ft | 346 kts | 75° |
| 2026-04-23 12:44 | 51.80594 | -0.76026 | 4830 ft | 359 kts | 75° |
| 2026-04-23 12:44 | 51.81291 | -0.72245 | 4061 ft | 338 kts | 75° |
| 2026-04-23 12:44 | 51.81887 | -0.68748 | 3617 ft | 312 kts | 76° |
| 2026-04-23 12:44 | 51.82434 | -0.65562 | 3505 ft | 282 kts | 75° |
| 2026-04-23 12:45 | 51.82946 | -0.62677 | 3498 ft | 253 kts | 76° |
| 2026-04-23 12:45 | 51.83407 | -0.60033 | 3269 ft | 237 kts | 75° |
| 2026-04-23 12:45 | 51.83843 | -0.57579 | 2959 ft | 217 kts | 75° |
| 2026-04-23 12:45 | 51.84225 | -0.55387 | 2702 ft | 186 kts | 76° |
| 2026-04-23 12:46 | 51.84557 | -0.53516 | 2433 ft | 164 kts | 75° |
| 2026-04-23 12:46 | 51.84843 | -0.51861 | 2245 ft | 147 kts | 75° |
| 2026-04-23 12:46 | 51.85093 | -0.50441 | 2052 ft | 128 kts | 75° |
| 2026-04-23 12:46 | 51.85314 | -0.49147 | 1869 ft | 123 kts | 75° |
| 2026-04-23 12:47 | 51.85553 | -0.47813 | 1755 ft | 124 kts | 76° |
| 2026-04-23 12:47 | 51.85787 | -0.46480 | 1564 ft | 124 kts | 74° |
| 2026-04-23 12:47 | 51.86021 | -0.45121 | 1408 ft | 126 kts | 73° |
| 2026-04-23 12:47 | 51.86262 | -0.43767 | 1302 ft | 125 kts | 73° |
| 2026-04-23 12:48 | 51.86501 | -0.42412 | 1154 ft | 128 kts | 73° |
| 2026-04-23 12:48 | 51.86757 | -0.41009 | 978 ft | 130 kts | 75° |
| 2026-04-23 12:48 | 51.86988 | -0.39636 | 693 ft | 122 kts | 73° |
| 2026-04-23 12:48 | 51.87217 | -0.38290 | 549 ft | 122 kts | 72° |
| 2026-04-23 12:49 | 51.87414 | -0.37171 | 532 ft | 77 kts | 73° |
| 2026-04-23 12:49 | 51.87511 | -0.36929 | 530 ft | 8 kts | 337° |
| 2026-04-23 12:49 | 51.87564 | -0.36962 | 529 ft | 7 kts | 334° |
| 2026-04-23 12:49 | 51.87613 | -0.37049 | 528 ft | 12 kts | 275° |
| 2026-04-23 12:50 | 51.87593 | -0.37170 | 529 ft | 10 kts | 252° |
| 2026-04-23 12:50 | 51.87576 | -0.37287 | 529 ft | 14 kts | 267° |
| 2026-04-23 12:50 | 51.87606 | -0.37427 | 529 ft | 14 kts | 314° |
| 2026-04-23 12:50 | 51.87694 | -0.37548 | 527 ft | 16 kts | 300° |
| 2026-04-23 12:51 | 51.87736 | -0.37699 | 528 ft | 13 kts | 294° |
| 2026-04-23 12:51 | 51.87773 | -0.37823 | 529 ft | 11 kts | 295° |
| 2026-04-23 12:51 | 51.87820 | -0.37957 | 528 ft | 15 kts | 310° |
| 2026-04-23 12:51 | 51.87870 | -0.37989 | 528 ft | 3 kts | 37° |
| 2026-04-23 12:52 | 51.87884 | -0.37950 | 529 ft | 3 kts | 72° |
| 2026-04-23 12:52 | 51.87888 | -0.37927 | 530 ft | 1 kts | 72° |
| 2026-04-23 12:52 | 51.87888 | -0.37926 | 530 ft | 0 kts | 72° |